Vera, Texas
Current Conditions -  °F | °C
As of 3:56 AM on Sunday 23 Nov 2014 (Local Time) from KF05 Reporting Station
Scattered Clouds Scattered Clouds  
Wind Chill: 11°   Ceiling: Unl
Heat Index: 11°   Visibility: 10mi
Dew Point: 10°   Wind: 13mph
Humidity: 94%   Direction: 170°S
Pressure: 29.51"   Gusts: NA
Location:  33.6337°N, 99.8039°W
Report Text: KF05 230956Z AUTO 17011KT 10SM SCT002 11/10 A2951 RMK AO2
Loading
Personal Weather Stations






























Interactive Weather Map New forecast layout! Learn more

10-Day Weather Forecast

Advertisements
Track Severe Weather on mobile